Time;durP1;ratioP1;P1;durP2;ratioP2;P2;SDS_P1;SDS_P2;PMS_P1;PMS_P2;Temp;Humidity;BMP_temperature;BMP_pressure;BME280_temperature;BME280_humidity;BME280_pressure;Samples;Min_cycle;Max_cycle;Signal;HPM_P1;HPM_P2
2022/03/30 00:01:07;;;;;;;29.80;13.63;;;;;;;14.21;66.54;98903.91;4993160;28;20030;-65
2022/03/30 00:03:33;;;;;;;36.40;16.55;;;;;;;14.20;66.40;98918.25;4992803;28;20033;-64
2022/03/30 00:05:58;;;;;;;42.53;18.00;;;;;;;14.18;66.03;98906.78;4993177;28;20521;-64
2022/03/30 00:08:24;;;;;;;35.05;15.73;;;;;;;14.19;64.49;98905.81;4992866;28;20153;-64
2022/03/30 00:10:49;;;;;;;42.22;15.10;;;;;;;14.15;63.73;98890.94;4992768;28;20030;-64
2022/03/30 00:13:15;;;;;;;29.20;14.20;;;;;;;14.28;63.31;98902.59;4993110;28;20038;-64
2022/03/30 00:15:41;;;;;;;32.22;14.57;;;;;;;14.21;63.82;98886.06;4992789;28;20022;-65
2022/03/30 00:18:06;;;;;;;32.53;16.05;;;;;;;14.30;63.58;98906.88;4993047;28;20040;-65
2022/03/30 00:20:32;;;;;;;33.08;16.33;;;;;;;14.29;63.17;98882.91;4992785;28;20057;-64
2022/03/30 00:22:58;;;;;;;29.70;14.98;;;;;;;14.35;62.69;98882.50;4992938;28;20546;-64
2022/03/30 00:25:23;;;;;;;32.58;13.93;;;;;;;14.36;64.13;98886.91;4992702;28;20030;-64
2022/03/30 00:27:49;;;;;;;28.80;13.23;;;;;;;14.37;64.49;98885.94;4992924;28;20037;-64
2022/03/30 00:30:18;;;;;;;31.83;13.90;;;;;;;14.34;63.76;98887.00;4992625;28;20109;-64
2022/03/30 00:32:44;;;;;;;40.05;15.95;;;;;;;14.28;64.05;98882.03;4992799;28;20088;-64
2022/03/30 00:35:10;;;;;;;34.78;15.38;;;;;;;14.28;63.92;98879.38;4991915;28;20412;-64
2022/03/30 00:37:36;;;;;;;30.15;14.77;;;;;;;14.30;65.26;98879.25;4992162;28;20512;-64
2022/03/30 00:40:07;;;;;;;31.08;15.45;;;;;;;14.33;67.33;98873.75;4992264;28;20026;-64
2022/03/30 00:42:33;;;;;;;47.08;22.50;;;;;;;14.25;66.05;98870.69;4992569;28;20036;-64
2022/03/30 00:45:06;;;;;;;44.95;19.38;;;;;;;14.23;65.44;98861.88;4992367;28;20030;-64
2022/03/30 00:47:31;;;;;;;33.22;15.82;;;;;;;14.21;67.94;98858.44;4992649;28;20068;-64
2022/03/30 00:49:57;;;;;;;33.13;15.00;;;;;;;14.24;70.85;98864.47;4992107;28;20066;-64
2022/03/30 00:52:22;;;;;;;30.23;14.35;;;;;;;14.20;71.22;98867.44;4992442;28;20057;-64
2022/03/30 00:54:50;;;;;;;35.78;15.65;;;;;;;14.09;69.00;98864.59;4992456;28;20109;-64
2022/03/30 00:57:19;;;;;;;31.15;14.07;;;;;;;14.07;66.55;98866.50;4992169;28;20018;-64
2022/03/30 00:59:44;;;;;;;30.02;13.93;;;;;;;14.08;67.02;98858.41;4992093;28;20110;-64
2022/03/30 01:02:10;;;;;;;29.30;13.15;;;;;;;14.04;68.18;98861.34;4974610;28;20040;-64
2022/03/30 01:04:35;;;;;;;28.50;14.48;;;;;;;13.99;69.16;98868.81;4992113;28;20030;-64
2022/03/30 01:07:02;;;;;;;25.90;12.35;;;;;;;13.94;69.24;98862.91;4991702;28;21260;-64
2022/03/30 01:09:28;;;;;;;29.55;14.18;;;;;;;13.88;68.89;98853.47;4992383;28;20022;-64
2022/03/30 01:11:55;;;;;;;30.45;13.93;;;;;;;13.84;68.02;98857.28;4992098;28;20031;-64
2022/03/30 01:14:22;;;;;;;31.00;13.85;;;;;;;13.80;67.67;98841.56;4992256;28;20359;-64
2022/03/30 01:16:48;;;;;;;28.13;13.18;;;;;;;13.88;67.67;98840.13;4991920;28;20054;-64
2022/03/30 01:19:14;;;;;;;30.60;12.88;;;;;;;13.90;69.22;98830.19;4991887;28;20444;-64
2022/03/30 01:21:41;;;;;;;32.38;13.68;;;;;;;13.85;70.25;98818.94;4992224;28;20450;-64
2022/03/30 01:24:12;;;;;;;25.13;12.32;;;;;;;13.85;69.21;98818.94;4992018;28;20049;-64
2022/03/30 01:26:38;;;;;;;29.38;13.00;;;;;;;13.83;67.87;98810.16;4991987;28;20101;-65
2022/03/30 01:32:25;;;;;;;23.33;12.68;;;;;;;13.87;66.65;98800.97;4992035;28;20126;-64
2022/03/30 01:34:34;;;;;;;25.17;13.00;;;;;;;13.80;64.70;98793.44;4992056;28;20458;-64
2022/03/30 01:37:04;;;;;;;28.63;13.40;;;;;;;13.82;65.31;98791.53;4991866;28;20109;-64
2022/03/30 01:39:29;;;;;;;25.88;13.23;;;;;;;13.79;63.10;98792.59;4991850;28;20365;-64
2022/03/30 01:41:55;;;;;;;20.42;11.50;;;;;;;13.80;63.63;98778.28;4991932;28;20033;-64
2022/03/30 01:44:21;;;;;;;29.15;13.25;;;;;;;13.77;65.15;98775.78;4991714;28;20836;-64
2022/03/30 01:46:46;;;;;;;23.73;12.35;;;;;;;13.75;66.47;98768.84;4991799;28;20035;-64
2022/03/30 01:49:12;;;;;;;28.30;12.65;;;;;;;13.76;67.79;98775.88;4992198;28;20053;-64
2022/03/30 01:51:37;;;;;;;27.15;13.18;;;;;;;13.79;67.33;98771.19;4995775;28;20109;-64
2022/03/30 01:54:03;;;;;;;26.17;13.57;;;;;;;13.76;67.51;98765.19;4995382;28;20027;-64
2022/03/30 01:56:28;;;;;;;27.50;12.48;;;;;;;13.70;68.80;98768.28;4995594;28;20490;-64
2022/03/30 01:58:53;;;;;;;24.23;12.77;;;;;;;13.68;69.25;98759.50;4995419;28;20019;-64
2022/03/30 02:01:20;;;;;;;24.27;12.45;;;;;;;13.64;69.32;98758.00;4995535;28;20041;-64
2022/03/30 02:03:46;;;;;;;24.02;12.25;;;;;;;13.62;69.89;98758.09;4995363;28;20105;-64
2022/03/30 02:06:12;;;;;;;26.48;12.85;;;;;;;13.71;69.06;98751.28;4995192;28;20028;-64
2022/03/30 02:08:38;;;;;;;27.15;13.05;;;;;;;13.81;67.62;98763.09;4995671;28;20456;-64
2022/03/30 02:11:04;;;;;;;30.38;14.55;;;;;;;13.73;65.35;98774.28;4995087;28;20030;-64
2022/03/30 02:13:29;;;;;;;27.85;12.07;;;;;;;13.70;65.92;98782.50;4994752;28;20023;-64
2022/03/30 02:15:55;;;;;;;28.80;14.07;;;;;;;13.72;65.71;98772.56;4995089;28;20065;-64
2022/03/30 02:18:20;;;;;;;19.58;11.13;;;;;;;13.75;64.11;98772.38;4994870;28;20030;-64
2022/03/30 02:20:46;;;;;;;22.05;10.65;;;;;;;13.75;62.59;98769.72;4995025;28;20485;-64
2022/03/30 02:23:11;;;;;;;25.85;11.30;;;;;;;13.78;62.19;98765.97;4995087;28;20117;-64
2022/03/30 02:25:37;;;;;;;23.17;11.07;;;;;;;13.81;62.70;98763.94;4994919;28;20367;-63
2022/03/30 02:28:03;;;;;;;24.88;11.77;;;;;;;13.85;64.34;98767.28;4994816;28;20451;-64
2022/03/30 02:30:29;;;;;;;26.08;10.95;;;;;;;13.89;64.27;98771.44;4995018;28;20588;-64
2022/03/30 02:32:55;;;;;;;23.10;10.82;;;;;;;13.92;65.82;98768.59;4994895;28;20065;-64
2022/03/30 02:35:21;;;;;;;24.77;10.50;;;;;;;13.89;66.19;98758.09;4994716;28;20479;-64
2022/03/30 02:37:46;;;;;;;23.00;10.38;;;;;;;13.94;69.87;98761.31;4995041;28;20097;-64
2022/03/30 02:40:12;;;;;;;25.38;11.23;;;;;;;13.94;70.43;98761.31;4994240;28;20019;-64
2022/03/30 02:42:37;;;;;;;22.35;11.63;;;;;;;13.94;72.53;98754.16;4994523;28;20030;-63
2022/03/30 02:45:04;;;;;;;19.15;11.30;;;;;;;13.91;74.48;98758.84;4994445;28;20038;-63
2022/03/30 02:50:13;;;;;;;;;;;;;;;13.77;77.21;98764.25;4994921;28;20058;-64
2022/03/30 02:52:38;;;;;;;27.95;12.93;;;;;;;13.69;77.06;98767.41;4994580;28;19910;-64
2022/03/30 02:55:04;;;;;;;25.00;12.57;;;;;;;13.54;74.51;98775.56;4994219;28;20023;-63
2022/03/30 02:57:29;;;;;;;21.48;11.20;;;;;;;13.42;73.62;98773.69;4993759;28;20034;-63
2022/03/30 02:59:55;;;;;;;25.50;11.35;;;;;;;13.37;75.76;98767.78;4993865;28;20033;-63
2022/03/30 03:02:20;;;;;;;31.13;12.48;;;;;;;13.31;76.21;98781.53;4994005;28;20065;-63
2022/03/30 03:04:46;;;;;;;23.42;12.32;;;;;;;13.20;77.25;98774.19;4994423;28;20041;-64
2022/03/30 03:07:14;;;;;;;23.75;12.05;;;;;;;13.13;78.00;98776.38;4994388;28;20030;-64
2022/03/30 03:09:40;;;;;;;28.85;12.32;;;;;;;13.02;79.66;98783.34;4994199;28;20038;-65
2022/03/30 03:12:05;;;;;;;22.65;12.30;;;;;;;12.92;81.79;98785.69;4992979;28;20031;-65
2022/03/30 03:14:31;;;;;;;26.65;12.00;;;;;;;12.89;83.83;98780.53;4993507;28;20034;-66
2022/03/30 03:16:56;;;;;;;23.00;11.23;;;;;;;12.86;84.93;98783.41;4994151;28;20383;-66
2022/03/30 03:19:23;;;;;;;22.33;10.88;;;;;;;12.81;86.58;98780.16;4993887;28;20033;-65
2022/03/30 03:21:49;;;;;;;25.95;11.43;;;;;;;12.71;88.43;98779.00;4993852;28;20026;-65
2022/03/30 03:24:14;;;;;;;23.77;12.63;;;;;;;12.68;89.61;98768.53;4994099;28;20033;-64
2022/03/30 03:26:40;;;;;;;21.25;10.65;;;;;;;12.69;91.30;98772.03;4993944;28;20034;-64
2022/03/30 03:29:05;;;;;;;26.13;11.68;;;;;;;12.60;93.42;98770.78;4993934;28;20033;-64
2022/03/30 03:31:30;;;;;;;23.85;13.25;;;;;;;12.52;94.70;98778.38;4993698;28;20536;-64
2022/03/30 03:33:56;;;;;;;28.92;12.88;;;;;;;12.56;95.80;98773.72;4994013;28;20026;-65
2022/03/30 03:36:21;;;;;;;28.00;12.73;;;;;;;12.51;95.58;98771.34;4993768;28;20061;-65
2022/03/30 03:38:47;;;;;;;23.55;12.25;;;;;;;12.41;96.61;98778.16;4993703;28;20105;-65
2022/03/30 03:41:12;;;;;;;24.75;13.35;;;;;;;12.41;96.68;98769.31;4993469;28;20026;-65
2022/03/30 03:43:38;;;;;;;31.27;13.25;;;;;;;12.46;97.78;98762.75;4993872;28;20433;-65
2022/03/30 03:46:04;;;;;;;31.77;13.95;;;;;;;12.45;98.10;98755.72;4993678;28;20026;-65
2022/03/30 03:48:30;;;;;;;30.15;13.65;;;;;;;12.41;98.98;98763.97;4993523;28;20038;-65
2022/03/30 03:50:56;;;;;;;26.40;12.25;;;;;;;12.34;99.61;98751.97;4993256;28;20015;-65
2022/03/30 03:53:21;;;;;;;28.33;12.65;;;;;;;12.48;99.27;98750.19;4993580;28;20037;-65
2022/03/30 03:55:46;;;;;;;31.00;11.50;;;;;;;12.50;99.68;98748.28;4993289;28;20034;-65
2022/03/30 03:58:12;;;;;;;26.25;13.07;;;;;;;12.53;99.60;98748.09;4993451;28;20022;-64
2022/03/30 04:00:38;;;;;;;26.50;13.02;;;;;;;12.53;99.47;98742.78;4993180;28;20496;-64
2022/03/30 04:03:03;;;;;;;26.05;12.68;;;;;;;12.46;99.59;98743.22;4993560;28;20080;-65
2022/03/30 04:05:29;;;;;;;28.35;12.88;;;;;;;12.48;100.00;98742.19;4993445;28;20029;-64
2022/03/30 04:07:54;;;;;;;25.27;10.98;;;;;;;12.54;100.00;98748.94;4992396;28;20109;-64
2022/03/30 04:10:20;;;;;;;22.95;12.20;;;;;;;12.52;100.00;98743.69;4993006;28;20030;-64
2022/03/30 04:12:46;;;;;;;24.17;12.73;;;;;;;12.59;100.00;98737.06;4992458;28;20030;-64
2022/03/30 04:15:11;;;;;;;30.85;12.10;;;;;;;12.48;100.00;98733.31;4993083;28;20050;-64
2022/03/30 04:17:44;;;;;;;27.13;12.50;;;;;;;12.41;100.00;98730.16;4993201;28;20033;-64
2022/03/30 04:20:11;;;;;;;29.58;13.20;;;;;;;12.39;100.00;98737.41;4992165;28;20065;-64
2022/03/30 04:22:36;;;;;;;23.80;11.57;;;;;;;12.43;100.00;98730.94;4991720;28;20023;-64
2022/03/30 04:25:04;;;;;;;27.83;12.05;;;;;;;12.36;100.00;98723.38;4993078;28;20049;-64
2022/03/30 04:27:30;;;;;;;23.95;10.90;;;;;;;12.37;100.00;98728.63;4993029;28;20034;-64
2022/03/30 04:29:55;;;;;;;26.50;12.75;;;;;;;12.32;100.00;98721.88;4992779;28;20034;-64
2022/03/30 04:32:20;;;;;;;27.67;14.18;;;;;;;12.29;100.00;98725.56;4993250;28;20117;-64
2022/03/30 04:34:46;;;;;;;23.98;10.75;;;;;;;12.27;100.00;98707.97;4990196;28;20449;-64
2022/03/30 04:37:11;;;;;;;22.70;11.70;;;;;;;12.08;100.00;98700.19;4992492;28;20066;-64
2022/03/30 04:39:37;;;;;;;25.50;12.27;;;;;;;12.10;100.00;98708.97;4992795;28;20113;-64
2022/03/30 04:42:02;;;;;;;21.25;10.65;;;;;;;12.03;100.00;98710.25;4992591;28;20068;-63
2022/03/30 04:44:28;;;;;;;25.08;10.82;;;;;;;11.93;100.00;98713.59;4992840;28;20482;-63
2022/03/30 04:46:54;;;;;;;20.42;10.52;;;;;;;11.84;100.00;98709.66;4992266;28;20022;-63
2022/03/30 04:49:19;;;;;;;21.08;10.27;;;;;;;11.88;100.00;98700.50;4992690;28;20069;-62
2022/03/30 04:51:45;;;;;;;18.10;8.75;;;;;;;11.92;100.00;98699.41;4992012;28;20026;-62
2022/03/30 04:54:11;;;;;;;26.05;10.35;;;;;;;11.95;100.00;98696.53;4992314;28;20045;-62
2022/03/30 04:56:36;;;;;;;19.85;9.23;;;;;;;11.90;100.00;98687.97;4992128;28;20030;-62
2022/03/30 04:59:02;;;;;;;26.50;10.23;;;;;;;11.90;100.00;98688.81;4992088;28;20027;-62
2022/03/30 05:01:27;;;;;;;22.65;10.07;;;;;;;11.83;100.00;98689.25;4992860;28;20036;-61
2022/03/30 05:03:53;;;;;;;20.92;9.82;;;;;;;11.86;100.00;98683.78;4992601;28;20030;-61
2022/03/30 05:06:18;;;;;;;23.83;9.20;;;;;;;11.97;100.00;98684.00;4991922;28;20028;-61
2022/03/30 05:08:44;;;;;;;17.95;8.45;;;;;;;12.07;100.00;98681.63;4991968;28;20050;-62
2022/03/30 05:11:09;;;;;;;37.67;11.40;;;;;;;12.09;100.00;98680.59;4992492;28;20030;-62
2022/03/30 05:13:35;;;;;;;17.73;8.82;;;;;;;12.05;100.00;98676.41;4991909;28;20019;-62
2022/03/30 05:16:01;;;;;;;19.55;9.50;;;;;;;12.05;100.00;98679.06;4992057;28;20398;-62
2022/03/30 05:18:26;;;;;;;20.27;9.85;;;;;;;12.09;100.00;98677.94;4992199;28;20030;-63
2022/03/30 05:20:53;;;;;;;19.77;8.82;;;;;;;12.08;100.00;98672.66;4992079;28;20027;-62
2022/03/30 05:23:19;;;;;;;20.75;10.02;;;;;;;12.06;100.00;98671.94;4992724;28;20042;-62
2022/03/30 05:25:44;;;;;;;19.55;10.82;;;;;;;11.97;100.00;98668.00;4996162;28;20030;-62
2022/03/30 05:28:10;;;;;;;19.73;9.70;;;;;;;12.02;100.00;98663.25;4996365;28;20374;-62
2022/03/30 05:30:35;;;;;;;28.95;10.13;;;;;;;11.96;100.00;98662.78;4996327;28;20030;-62
2022/03/30 05:33:01;;;;;;;15.93;8.80;;;;;;;12.00;100.00;98666.94;4996034;28;20034;-62
2022/03/30 05:35:26;;;;;;;19.77;8.70;;;;;;;12.01;100.00;98658.03;4995922;28;20448;-62
2022/03/30 05:37:52;;;;;;;16.58;8.15;;;;;;;12.03;100.00;98666.75;4995977;28;20556;-62
2022/03/30 05:40:18;;;;;;;19.75;8.40;;;;;;;11.93;100.00;98660.28;4995998;28;20363;-62
2022/03/30 05:42:44;;;;;;;15.13;7.95;;;;;;;11.94;100.00;98660.19;4995873;28;20108;-62
2022/03/30 05:45:10;;;;;;;17.08;8.10;;;;;;;11.97;100.00;98665.34;4995755;28;20080;-62
2022/03/30 05:47:35;;;;;;;23.45;7.97;;;;;;;12.00;100.00;98656.28;4995987;28;20042;-62
2022/03/30 05:50:03;;;;;;;18.73;9.75;;;;;;;12.07;100.00;98655.84;4995686;28;20061;-62
2022/03/30 05:52:29;;;;;;;16.33;8.40;;;;;;;12.06;100.00;98651.44;4995604;28;20029;-62
2022/03/30 05:54:54;;;;;;;23.63;8.32;;;;;;;12.07;100.00;98657.66;4995834;28;20022;-62
2022/03/30 05:57:21;;;;;;;20.15;8.65;;;;;;;12.06;100.00;98656.78;4995707;28;20522;-62
2022/03/30 05:59:48;;;;;;;21.30;8.05;;;;;;;12.10;100.00;98655.66;4995640;28;20117;-62
2022/03/30 06:02:14;;;;;;;17.95;9.50;;;;;;;12.13;100.00;98658.13;4994551;28;20057;-62
2022/03/30 06:04:49;;;;;;;18.55;7.88;;;;;;;12.08;100.00;98656.69;4994843;28;20434;-62
2022/03/30 06:07:15;;;;;;;15.85;7.10;;;;;;;12.08;100.00;98652.22;4995582;28;20061;-62
2022/03/30 06:09:40;;;;;;;17.02;8.18;;;;;;;12.14;100.00;98649.16;4995989;28;20175;-62
2022/03/30 06:12:07;;;;;;;16.65;8.15;;;;;;;12.18;100.00;98657.84;4995147;28;20087;-62
2022/03/30 06:14:33;;;;;;;19.73;8.27;;;;;;;12.21;100.00;98650.53;4995557;28;20041;-62
2022/03/30 06:17:00;;;;;;;22.52;9.15;;;;;;;12.25;100.00;98660.06;4987846;28;20082;-62
2022/03/30 06:19:26;;;;;;;16.35;8.02;;;;;;;12.27;100.00;98644.84;4976817;28;20501;-62
2022/03/30 06:21:51;;;;;;;20.98;8.63;;;;;;;12.33;100.00;98654.25;4995109;28;20023;-62
2022/03/30 06:24:17;;;;;;;18.33;9.05;;;;;;;12.34;100.00;98656.00;4995262;28;20498;-62
2022/03/30 06:26:43;;;;;;;19.08;8.40;;;;;;;12.30;100.00;98641.13;4995324;28;20100;-62
2022/03/30 06:29:09;;;;;;;28.45;10.65;;;;;;;12.32;100.00;98648.06;4995066;28;20116;-62
2022/03/30 06:31:34;;;;;;;23.48;9.70;;;;;;;12.33;100.00;98644.44;4995108;28;20488;-62
2022/03/30 06:34:00;;;;;;;20.10;10.45;;;;;;;12.41;100.00;98649.31;4994295;28;20088;-62
2022/03/30 06:36:26;;;;;;;21.30;9.18;;;;;;;12.39;100.00;98652.06;4993833;28;20061;-62
2022/03/30 06:38:52;;;;;;;19.02;9.15;;;;;;;12.38;100.00;98657.50;4994515;28;20033;-62
2022/03/30 06:41:18;;;;;;;21.92;9.82;;;;;;;12.33;100.00;98654.25;4994337;28;20413;-62
2022/03/30 06:43:46;;;;;;;20.63;9.43;;;;;;;12.33;100.00;98649.78;4994505;28;20093;-62
2022/03/30 06:46:13;;;;;;;21.92;10.95;;;;;;;12.44;100.00;98649.97;4993401;28;20114;-62
2022/03/30 06:48:38;;;;;;;21.27;10.73;;;;;;;12.44;100.00;98636.63;4994164;28;20470;-62
2022/03/30 06:51:04;;;;;;;28.20;11.95;;;;;;;12.53;100.00;98644.09;4994679;28;20109;-62
2022/03/30 06:53:29;;;;;;;23.27;11.40;;;;;;;12.49;100.00;98639.88;4994639;28;20027;-62
2022/03/30 06:55:55;;;;;;;21.77;10.38;;;;;;;12.43;100.00;98626.06;4994253;28;20057;-62
2022/03/30 06:58:22;;;;;;;24.27;11.32;;;;;;;12.46;100.00;98632.06;4994365;28;20041;-62
2022/03/30 07:00:48;;;;;;;25.63;11.32;;;;;;;12.54;100.00;98632.44;4994543;28;20105;-62
2022/03/30 07:03:13;;;;;;;28.98;11.75;;;;;;;12.53;100.00;98630.75;4994466;28;20038;-62
2022/03/30 07:05:39;;;;;;;21.50;10.57;;;;;;;12.58;100.00;98628.66;4994163;28;20390;-62
2022/03/30 07:10:49;;;;;;;21.38;10.57;;;;;;;12.66;100.00;98631.69;4993832;28;20096;-62
2022/03/30 07:13:14;;;;;;;24.17;10.90;;;;;;;12.71;100.00;98618.91;4994465;28;20022;-62
2022/03/30 07:15:41;;;;;;;19.70;10.75;;;;;;;12.76;100.00;98621.28;4994280;28;20033;-62
2022/03/30 07:18:08;;;;;;;18.17;9.48;;;;;;;12.79;100.00;98621.09;4993964;28;20050;-62
2022/03/30 07:20:34;;;;;;;21.30;9.60;;;;;;;12.83;100.00;98618.13;4994012;28;20026;-62
2022/03/30 07:22:59;;;;;;;17.58;9.68;;;;;;;12.85;100.00;98610.06;4994097;28;20030;-62
2022/03/30 07:25:26;;;;;;;22.25;11.45;;;;;;;12.92;100.00;98617.53;4976512;28;20339;-61
2022/03/30 07:27:53;;;;;;;19.77;9.18;;;;;;;12.95;100.00;98617.34;4993316;28;20030;-61
2022/03/30 07:30:20;;;;;;;17.48;9.27;;;;;;;13.03;100.00;98624.91;4994066;28;20489;-61
2022/03/30 07:32:47;;;;;;;17.08;9.35;;;;;;;13.09;100.00;98620.03;4994523;28;20018;-61
2022/03/30 07:35:15;;;;;;;19.50;9.25;;;;;;;13.16;100.00;98615.97;4993700;28;20026;-61
2022/03/30 07:37:42;;;;;;;19.42;9.57;;;;;;;13.19;100.00;98615.78;4993748;28;20521;-62
2022/03/30 07:40:09;;;;;;;18.55;8.73;;;;;;;13.24;100.00;98620.84;4993710;28;20034;-62
2022/03/30 07:42:35;;;;;;;14.68;8.13;;;;;;;13.32;100.00;98613.19;4994026;28;20026;-62
2022/03/30 07:45:04;;;;;;;16.90;7.47;;;;;;;13.19;100.00;98606.94;4993523;28;20060;-62
2022/03/30 07:47:31;;;;;;;16.85;7.40;;;;;;;13.34;100.00;98619.28;4992677;28;20045;-62
2022/03/30 07:49:57;;;;;;;14.82;6.90;;;;;;;13.44;100.00;98612.38;4993539;28;20042;-62
2022/03/30 07:52:22;;;;;;;17.48;7.55;;;;;;;13.51;99.32;98612.81;4993632;28;20497;-62
2022/03/30 07:54:49;;;;;;;14.20;7.97;;;;;;;13.56;98.93;98613.38;4993555;28;20080;-62
2022/03/30 07:57:15;;;;;;;18.17;7.40;;;;;;;13.61;98.41;98616.56;4993554;28;20026;-62
2022/03/30 07:59:41;;;;;;;15.57;6.72;;;;;;;13.62;98.42;98616.50;4993624;28;20026;-62
2022/03/30 08:02:07;;;;;;;17.50;6.57;;;;;;;13.70;98.98;98613.28;4993495;28;20401;-62
2022/03/30 08:04:32;;;;;;;18.45;7.60;;;;;;;13.71;98.72;98621.19;4993493;28;20477;-62
2022/03/30 08:06:58;;;;;;;15.50;7.53;;;;;;;13.80;97.32;98625.06;4993168;28;20032;-62
2022/03/30 08:09:23;;;;;;;18.25;7.25;;;;;;;13.67;96.68;98622.38;4993064;28;20073;-62
2022/03/30 08:11:49;;;;;;;15.50;7.55;;;;;;;13.65;96.31;98624.31;4993345;28;20057;-62
2022/03/30 08:14:14;;;;;;;19.35;7.45;;;;;;;13.60;96.05;98634.44;4993219;28;20030;-62
2022/03/30 08:16:40;;;;;;;14.43;6.30;;;;;;;13.57;96.21;98636.44;4988517;28;20027;-62
2022/03/30 08:19:08;;;;;;;17.13;7.25;;;;;;;13.57;96.38;98633.78;4973649;28;20038;-62
2022/03/30 08:24:19;;;;;;;18.27;6.45;;;;;;;13.56;97.04;98629.41;4992866;28;20037;-62
2022/03/30 08:26:45;;;;;;;15.70;7.07;;;;;;;13.51;96.79;98631.53;4993184;28;20034;-62
2022/03/30 08:29:11;;;;;;;15.65;7.03;;;;;;;13.42;96.90;98629.44;4992968;28;20497;-62
2022/03/30 08:31:37;;;;;;;13.70;6.07;;;;;;;13.33;97.94;98630.06;4993045;28;20018;-61
2022/03/30 08:34:02;;;;;;;16.45;7.00;;;;;;;13.31;97.69;98634.66;4992567;28;20440;-61
2022/03/30 08:36:31;;;;;;;15.10;6.95;;;;;;;13.29;97.79;98629.41;4992733;28;20113;-61
2022/03/30 08:38:58;;;;;;;12.82;7.00;;;;;;;13.20;98.20;98620.19;4992354;28;20089;-61
2022/03/30 08:41:23;;;;;;;21.55;7.85;;;;;;;13.27;98.93;98635.78;4992830;28;20061;-62
2022/03/30 08:43:49;;;;;;;20.20;8.48;;;;;;;13.27;98.95;98627.78;4992042;28;20457;-61
2022/03/30 08:46:15;;;;;;;24.15;8.20;;;;;;;13.26;98.96;98631.41;4992448;28;20022;-62
2022/03/30 08:48:41;;;;;;;18.58;8.25;;;;;;;13.26;99.59;98626.06;4992413;28;20058;-62
2022/03/30 08:51:08;;;;;;;19.48;8.48;;;;;;;13.28;98.80;98624.16;4992504;28;20042;-62
2022/03/30 08:53:34;;;;;;;19.88;7.55;;;;;;;13.27;99.22;98627.78;4992467;28;20026;-62
2022/03/30 08:56:00;;;;;;;166.70;61.92;;;;;;;13.29;99.39;98628.53;4992515;28;20054;-61
2022/03/30 08:58:25;;;;;;;291.23;109.82;;;;;;;13.32;99.08;98628.34;4992014;28;20049;-61
2022/03/30 09:00:52;;;;;;;70.15;32.67;;;;;;;13.32;98.67;98631.88;4992210;28;20473;-62
2022/03/30 09:03:19;;;;;;;147.80;61.58;;;;;;;13.33;99.44;98632.75;4992207;28;20478;-61
2022/03/30 09:05:45;;;;;;;24.98;13.02;;;;;;;13.35;99.08;98636.13;4992177;28;20030;-61
2022/03/30 09:08:20;;;;;;;68.30;27.88;;;;;;;13.45;100.00;98631.91;4992277;28;20490;-62
2022/03/30 09:10:50;;;;;;;58.53;28.13;;;;;;;13.46;99.45;98633.66;4991664;28;20113;-61
2022/03/30 09:13:19;;;;;;;31.52;15.35;;;;;;;13.49;99.33;98633.44;4991818;28;20050;-61
2022/03/30 09:15:47;;;;;;;24.02;12.35;;;;;;;13.46;99.64;98630.97;4992163;28;20030;-61
2022/03/30 09:18:17;;;;;;;42.47;23.08;;;;;;;13.49;99.17;98633.44;4992925;28;20080;-62
2022/03/30 09:20:48;;;;;;;24.38;11.70;;;;;;;13.44;99.44;98631.06;4992864;28;20113;-62
2022/03/30 09:23:15;;;;;;;21.80;8.82;;;;;;;13.49;99.70;98628.97;4992444;28;20490;-61
2022/03/30 09:25:48;;;;;;;24.77;12.75;;;;;;;13.56;99.74;98629.41;4992104;28;20038;-61
2022/03/30 09:28:16;;;;;;;20.33;12.57;;;;;;;13.59;99.50;98629.19;4992341;28;20037;-62
2022/03/30 09:30:43;;;;;;;21.60;9.82;;;;;;;13.64;99.06;98630.59;4991955;28;20100;-61
2022/03/30 09:33:10;;;;;;;27.27;11.77;;;;;;;13.62;99.04;98631.66;4992249;28;20076;-62
2022/03/30 09:35:38;;;;;;;31.52;14.23;;;;;;;13.60;99.05;98628.22;4992219;28;20089;-62
2022/03/30 09:38:05;;;;;;;20.63;10.57;;;;;;;13.57;98.87;98629.31;4992327;28;20023;-62
2022/03/30 09:40:35;;;;;;;26.70;13.05;;;;;;;13.53;98.83;98618.91;4991989;28;20031;-61
2022/03/30 09:43:23;;;;;;;22.23;10.23;;;;;;;13.60;99.50;98631.75;4992450;28;20030;-62
2022/03/30 09:46:02;;;;;;;19.73;7.90;;;;;;;13.61;99.35;98621.91;4992014;28;20544;-62
2022/03/30 09:48:29;;;;;;;24.77;10.27;;;;;;;13.67;99.58;98621.53;4992104;28;20039;-62
2022/03/30 09:50:56;;;;;;;24.92;9.77;;;;;;;13.79;99.58;98618.03;4991751;28;20040;-62
2022/03/30 09:53:28;;;;;;;20.95;8.70;;;;;;;13.83;99.19;98617.72;4992387;28;20037;-62
2022/03/30 09:56:05;;;;;;;25.20;10.02;;;;;;;13.90;99.14;98610.13;4991871;28;20026;-62
2022/03/30 09:58:34;;;;;;;33.88;15.98;;;;;;;13.97;98.98;98614.09;4992079;28;20034;-62
2022/03/30 10:01:10;;;;;;;25.77;10.57;;;;;;;14.02;98.54;98610.13;4991607;28;20054;-62
2022/03/30 10:03:44;;;;;;;40.67;19.90;;;;;;;14.03;98.33;98611.00;4991977;28;20552;-62
2022/03/30 10:06:16;;;;;;;74.82;36.13;;;;;;;14.05;97.79;98611.75;4991557;28;20038;-62
2022/03/30 10:08:44;;;;;;;40.55;23.08;;;;;;;14.07;97.85;98604.47;4991993;28;20022;-62
2022/03/30 10:11:12;;;;;;;23.95;10.30;;;;;;;14.07;97.51;98602.66;4993724;28;20409;-62
2022/03/30 10:13:39;;;;;;;32.80;16.20;;;;;;;14.03;97.93;98602.97;4995846;28;20026;-62
2022/03/30 10:16:06;;;;;;;32.20;16.55;;;;;;;14.08;97.87;98600.84;4995201;28;20470;-62
2022/03/30 10:18:32;;;;;;;25.88;12.43;;;;;;;14.12;98.09;98605.88;4991683;28;20081;-62
2022/03/30 10:21:24;;;;;;;19.77;10.45;;;;;;;14.14;98.56;98616.47;4995330;28;20042;-62
2022/03/30 10:24:05;;;;;;;23.08;11.90;;;;;;;13.79;96.53;98623.38;4995392;28;20517;-62
2022/03/30 10:26:49;;;;;;;21.98;11.35;;;;;;;13.49;95.44;98620.06;4975680;28;20030;-62
2022/03/30 10:29:16;;;;;;;20.67;10.35;;;;;;;13.20;95.04;98614.84;4994665;28;20022;-62
2022/03/30 10:31:41;;;;;;;21.60;10.35;;;;;;;12.95;95.78;98616.47;4995491;28;20589;-62
2022/03/30 10:34:27;;;;;;;19.50;9.43;;;;;;;12.90;96.57;98622.13;4995287;28;20031;-62
2022/03/30 10:37:07;;;;;;;19.50;9.98;;;;;;;12.70;96.49;98627.84;4994822;28;20029;-62
2022/03/30 10:39:33;;;;;;;28.45;9.95;;;;;;;12.57;97.32;98626.91;4995301;28;20034;-62
2022/03/30 10:42:07;;;;;;;18.17;8.82;;;;;;;12.40;97.45;98626.28;4994285;28;20029;-62
2022/03/30 10:44:45;;;;;;;27.35;11.23;;;;;;;12.25;98.09;98629.88;4995244;28;20041;-62
2022/03/30 10:47:23;;;;;;;29.67;12.95;;;;;;;12.12;98.31;98629.78;4994268;28;20034;-62
2022/03/30 10:49:56;;;;;;;26.25;12.18;;;;;;;12.10;99.38;98621.00;4994636;28;20047;-62
2022/03/30 10:52:43;;;;;;;26.33;11.10;;;;;;;12.01;99.95;98621.56;4995077;28;20030;-62
2022/03/30 10:55:14;;;;;;;23.30;10.75;;;;;;;11.88;99.14;98631.22;4994583;28;20026;-62
2022/03/30 10:57:43;;;;;;;25.58;11.60;;;;;;;11.88;100.00;98623.25;4994539;28;20030;-62
2022/03/30 11:00:16;;;;;;;26.13;12.95;;;;;;;12.06;100.00;98619.47;4994530;28;20537;-62
2022/03/30 11:02:42;;;;;;;23.42;11.13;;;;;;;12.20;100.00;98616.84;4994103;28;20041;-62
2022/03/30 11:05:09;;;;;;;29.27;12.05;;;;;;;12.43;100.00;98618.06;4994036;28;20062;-62
2022/03/30 11:07:35;;;;;;;26.70;12.32;;;;;;;12.64;100.00;98612.25;4994620;28;20068;-62
2022/03/30 11:10:23;;;;;;;26.13;11.85;;;;;;;12.79;100.00;98616.63;4994359;28;20077;-62
2022/03/30 11:13:05;;;;;;;29.83;10.88;;;;;;;13.07;100.00;98619.28;4994558;28;20560;-62
2022/03/30 11:15:59;;;;;;;24.05;11.70;;;;;;;13.24;98.06;98613.66;4992312;28;20034;-62
2022/03/30 11:18:26;;;;;;;25.88;12.82;;;;;;;13.23;97.04;98612.94;4993882;28;20029;-62
2022/03/30 11:21:16;;;;;;;24.90;11.55;;;;;;;13.25;96.30;98611.84;4992724;28;20031;-62
2022/03/30 11:23:55;;;;;;;29.90;12.10;;;;;;;13.31;95.86;98613.28;4994167;28;20026;-62
2022/03/30 11:26:23;;;;;;;22.10;11.45;;;;;;;13.18;96.43;98614.06;4993985;28;20034;-62
2022/03/30 11:28:48;;;;;;;26.50;12.07;;;;;;;13.32;95.62;98610.50;4993917;28;20022;-62